Strona główna
METAR-TAF:

METAR-TAF

Lotnisko :

Cleveland, Ohio, Stany Zjednoczone

Szerokość geograficzna: 41-31-32N, Długość geograficzna: 081-40-08W, wysokość: 178 m

Aktualna obserwacja pogody

Raport powstał 59 minut temu, godzina 03:53 UTC
Wiatr 18 kt od północno-północny zachód
Temperatura 22°C
Wilgotność 60%
Ciśnienie 1014 hPa
Widzialność: 16.1 km
Rozproszone chmury na wysokości 4500 ft
Rozproszone chmury na wysokości 5500 ft

METAR: KBKL 230353Z 34018KT 10SM SCT045 SCT055 22/14 A2993 RMK AO2 SLP132 T02170139

czas: 00:52 (04:52 UTC)


TAF: brakujący

Obserwacja i prognoza pogody dla ponad 4000 lotnisk (raport METAR i TAF).

Dostępne stacje oznaczono żółtymi i czerwonymi punktami na mapie.

Najedź kursorem aby zobaczyć nazwę stacji.

Kliknij aby zobaczyć obserwacje i prognozy pogody.

Aby zmienić mapę: kliknij na zielony przycisk z czarnym krzyżykiem, aby powiększyć; na zielony przycisk z myślnikiem, aby pomniejszyć; na zielone strzałki, aby przejść do map sąsiednich.


METAR-TAF: